Pedro Diez

Recruteur en chef - Girona
3 Déc 2028
Dimanche
Processus

Personnalité

Adaptabilité (1) Ambition (6) Controverse (4) Loyauté (20) Pression (10) Professionnalisme (10) Sportivité (1) Tempérament (5)

Profil

Style d'entraînement Démocratique
Diplôme Continental Pro
Détermination 10
Gestion des joueurs 13
Motivation 10
Discipline 14
Satisfaction professionnelle
24%
Fatigue
0%
Rôle Recruteur en chef
Salaire 17.1K p/s
Contrat 14.03.2029

Performance

Comportement Bon
Efficacité de l'entraînement
18%
Développement des joueurs
35%
Prévention des blessures
40%
Mise en place tactique
45%

Événements récents

A participé à une réunion de recrutement maintenant
A recommandé une cible de transfert maintenant
A recommandé une cible de transfert maintenant
A recommandé une cible de transfert maintenant
A participé à une réunion de recrutement maintenant
A participé à une réunion de recrutement maintenant
A recommandé une cible de transfert maintenant
A recommandé une cible de transfert maintenant

Suivi en cours

163
Joueur Club Statut Capacité Confiance Observé Dernière observation Dernier vote
Juan Gutiérrez Córdoba Perdu 127 / 126 76% 1 28.08.2028 -
Obed Vargas Atlético Madrid Actif 138 / 148 72% 1 10.07.2028 Approuver
Honest Ahanor Atalanta Actif 142 / 149 40% 10 20.06.2028 -
Héctor Fort Real Sociedad Actif 138 / 154 40% 7 20.06.2028 -
Riquelme Thompson-Jones Accrington Stanley Actif 113 / 117 40% 5 20.06.2028 -
Martim Cunha Porto Actif 107 / 114 40% 5 13.06.2028 -
Kiani Inge Groningen Actif 109 / 120 40% 5 13.06.2028 -
Trey Nyoni Rotherham United Actif 135 / 150 40% 7 13.06.2028 -
Bernardo Lima Porto Actif 112 / 113 40% 2 01.06.2028 -
Ayden Heaven Portsmouth Actif 148 / 150 40% 4 31.05.2028 -
Andrey Ivlev Nizhniy Novgorod Actif 107 / 106 40% 3 31.05.2028 -
Christos Mouzakitis Hull City Actif 139 / 147 40% 9 30.05.2028 -
Jorthy Mokio ADO Den Haag Actif 129 / 142 40% 3 30.05.2028 -
Marc Bernal Sevilla Actif 154 / 155 40% 6 29.05.2028 -
Tobías Ramírez River Plate Actif 133 / 139 40% 2 29.05.2028 -
Jan Bürger Northampton Town Actif 116 / 126 40% 8 27.05.2028 -
Pau Cubarsí Real Sociedad Actif 159 / 172 40% 12 26.05.2028 -
Lucas Høgsberg RC Strasbourg Actif 142 / 147 40% 5 25.05.2028 -
Josh Nichols Oldham Athletic Actif 118 / 129 40% 5 16.05.2028 -
Daniel Banjaqui Benfica Actif 123 / 125 40% 5 07.05.2028 -
Tyler Fletcher Rotherham United Actif 109 / 115 40% 3 28.04.2028 -
Andrija Bulatović Chamois Niortais Actif 130 / 127 40% 1 27.04.2028 -
Giovanni Leoni Lincoln City Actif 135 / 140 40% 2 14.04.2028 -
Victor Hernandez Santa Fe Actif 119 / 116 40% 4 10.04.2028 -
Jorge Salinas Racing Santander Actif 137 / 144 40% 3 05.04.2028 -
Kauã Moraes Flamengo Actif 135 / 129 40% 3 04.04.2028 -
Josh Acheampong Everton Actif 139 / 154 40% 1 03.04.2028 -
Izan Merino Málaga Actif 129 / 142 40% 1 11.03.2028 -
Archie Gray Southampton Actif 155 / 154 40% 1 09.02.2028 -
Matias Siltanen Malmo FF Actif 115 / 139 40% 1 07.02.2028 -
Victor Froholdt Porto Actif 152 / 163 40% 1 18.01.2028 -
Octavio Ontivero Lanús Actif 112 / 121 40% 1 24.08.2027 -
Juanmi Latasa Valladolid Actif 125 / 119 40% 1 02.08.2027 -
Taty Castellanos West Ham United Actif 156 / 142 40% 5 27.07.2027 -
Mohamed-Ali Cho Hull City Actif 146 / 138 40% 3 27.07.2027 -
Sindre Walle Egeli Udinese Actif 133 / 132 40% 1 28.06.2027 -
William Gomes Porto Actif 149 / 151 40% 1 28.06.2027 -
Mads Hermansen West Ham United Actif 146 / 143 40% 1 21.06.2027 -
Exequiel Palacios Lazio Actif 157 / 157 66% 1 01.06.2027 Approuver
Dávid Strelec Girona Actif 135 / 136 68% 1 01.06.2027 Approuver
Kazunari Kita Real Sociedad Actif 99 / 103 67% 10 29.05.2027 Observer
Georginio Rutter Brighton Actif 148 / 152 40% 4 26.05.2027 -
Aimar Osasuna Actif 150 / 140 40% 10 25.05.2027 -
Lucien Agoumé Sevilla Actif 136 / 134 40% 3 25.05.2027 -
Yussif Saidu Zaragoza Actif 119 / 129 40% 4 24.05.2027 -
Gonçalo Oliveira Benfica Actif 109 / 117 40% 2 23.05.2027 -
Ezra Mayers West Ham United Actif 111 / 133 40% 1 23.05.2027 -
Caleb Yirenkyi Coventry City Actif 134 / 143 40% 4 20.05.2027 -
Jesús Areso Athletic Bilbao Actif 149 / 146 40% 2 17.05.2027 -
Boubacar Kamara Aston Villa Actif 171 / 167 40% 2 17.05.2027 -
Gaspar Gijón Actif 147 / 145 40% 6 17.05.2027 -
Georges Mikautadze Villarreal Actif 157 / 151 40% 7 16.05.2027 -
Chemsdine Talbi Sunderland Actif 140 / 141 40% 1 15.05.2027 -
José Ángel Carmona Sevilla Actif 155 / 155 40% 2 14.05.2027 -
Ez Abde Betis Actif 144 / 148 40% 8 12.05.2027 -
Manu Koné AS Roma Actif 164 / 162 40% 5 12.05.2027 -
Andrés Martín Racing Santander Actif 133 / 128 40% 13 11.05.2027 -
Yeremy Pino Crystal Palace Actif 158 / 157 40% 6 11.05.2027 -
Pau Víctor Braga Actif 146 / 140 40% 11 07.05.2027 -
Nicolas Jackson Aston Villa Actif 152 / 141 40% 8 06.05.2027 -
Savinho Tottenham Actif 156 / 164 40% 7 06.05.2027 -
Moisés Caicedo Chelsea Actif 169 / 174 40% 3 06.05.2027 -
Tyrhys Dolan Espanyol Actif 136 / 137 40% 3 05.05.2027 -
Amadou Onana Aston Villa Actif 155 / 149 40% 4 03.05.2027 -
Riley Owen Stevenage Actif 105 / 109 40% 2 30.04.2027 -
Jack Rudoni Coventry City Actif 129 / 138 40% 1 30.04.2027 -
Jonathan Dubasin Osasuna Actif 150 / 150 40% 10 28.04.2027 -
Oihan Sancet Athletic Bilbao Actif 160 / 149 40% 18 27.04.2027 -
Jacob Ramsey Newcastle United Actif 152 / 147 40% 2 27.04.2027 -
Sascha Britschgi AC Milan Actif 115 / 133 40% 1 26.04.2027 -
Samuele di Benedetto Twente Actif 117 / 111 40% 1 26.04.2027 -
Yusi Alavés Actif 131 / 136 40% 3 25.04.2027 -
Gorka Gorosabel Real Sociedad Actif 101 / 122 67% 1 25.04.2027 Observer
Fran García Betis Actif 147 / 149 40% 1 24.04.2027 -
Finn Azaz Southampton Actif 130 / 133 40% 2 20.04.2027 -
Louis Leroux FC Nantes Actif 127 / 130 40% 2 17.04.2027 -
Alfon Sevilla Actif 140 / 145 40% 3 15.04.2027 -
David Larrubia Málaga Actif 130 / 124 40% 3 12.04.2027 -
Brian Gutiérrez Guadalajara Actif 129 / 121 40% 2 10.04.2027 -
Mikel Jauregizar Athletic Bilbao Actif 150 / 150 40% 6 10.04.2027 -
Roberto Fernández Braga Actif 141 / 133 40% 2 29.03.2027 -
Kevin Fulham Actif 144 / 145 40% 2 27.03.2027 -
James Dornelly Peterborough United Actif 100 / 102 40% 1 25.03.2027 -
Emirhan Başyiğit Sivasspor Actif 98 / 102 40% 1 23.03.2027 -
Marcel Ruiz Crystal Palace Actif 147 / 144 40% 2 21.03.2027 -
Yael Padilla Tijuana Actif 100 / 104 40% 1 16.03.2027 -
Antoni Milambo Brentford Actif 144 / 135 40% 1 16.03.2027 -
Marcelo Allende Mamelodi Sundowns Actif 141 / 133 40% 1 15.03.2027 -
Leandrinho Sharjah Actif 112 / 130 40% 1 11.03.2027 -
Cristian Uribe Monaco Actif 158 / 150 40% 5 08.03.2027 -
Mikkel Damsgaard Brentford Actif 152 / 152 40% 1 05.03.2027 -
Geny Sporting CP Actif 144 / 135 40% 2 25.02.2027 -
Pablo Torre Mallorca Actif 152 / 151 40% 2 16.02.2027 -
Antony Betis Actif 149 / 143 40% 1 16.02.2027 -
Jeremy Márquez Cruz Azul Actif 126 / 132 40% 2 14.02.2027 -
Omar El Hilali Espanyol Actif 157 / 156 40% 1 10.02.2027 -
Osame Sahraoui LOSC Lille Actif 136 / 135 40% 1 08.02.2027 -
Iliman N'Diaye Everton Actif 158 / 160 40% 8 05.02.2027 -
Joe Gelhardt Hull City Actif 132 / 139 40% 1 01.02.2027 -
Théodore Lefèvre Tours Actif 132 / 133 40% 1 11.01.2027 -
Jacob Greaves Ipswich Town Actif 133 / 142 40% 1 11.01.2027 -
Gorka Carrera Real Sociedad Actif 117 / 117 40% 1 05.01.2027 -
Luke Baartman Ajax Cape Town Actif 96 / 123 40% 1 05.01.2027 -
Marvin Keller Chelsea Actif 136 / 137 67% 1 01.01.2027 Approuver
Ricardo Pepi Mallorca Actif 148 / 140 40% 6 29.12.2026 -
Giacomo Raspadori Atalanta Actif 151 / 143 40% 1 28.12.2026 -
Carlos Forbs Club Brugge Actif 128 / 142 40% 1 27.12.2026 -
Nico Williams Athletic Bilbao Actif 172 / 157 40% 3 25.12.2026 -
Brian Rodríguez Club America Actif 129 / 127 40% 1 25.12.2026 -
Ferran Torres Paris Saint-Germain Actif 161 / 169 40% 3 24.12.2026 -
Eduardo Lozano Botafogo Actif 134 / 140 40% 1 23.12.2026 -
Javi Puado Espanyol Actif 146 / 145 40% 7 21.12.2026 -
Juan Bisanz Huracán Actif 133 / 136 40% 2 21.12.2026 -
Mikel Oyarzábal Real Sociedad Actif 162 / 159 40% 2 21.12.2026 -
João Pedro Chelsea Actif 149 / 143 40% 7 18.12.2026 -
Ademola Lookman Atlético Madrid Actif 171 / 157 40% 5 18.12.2026 -
Jorge De Frutos Rayo Vallecano Actif 148 / 155 40% 3 17.12.2026 -
Ismaïla Sarr Crystal Palace Actif 143 / 153 40% 4 12.12.2026 -
Rodrigo Muniz Fulham Actif 141 / 136 40% 1 10.12.2026 -
Kevin Schade Chelsea Actif 155 / 147 40% 4 04.12.2026 -
Alex Scott Bournemouth Actif 144 / 151 40% 1 03.12.2026 -
Elliot Anderson Manchester City Actif 156 / 157 40% 1 03.12.2026 -
Adam Wharton Crystal Palace Actif 157 / 159 40% 1 03.12.2026 -
Cody Gakpo Liverpool Actif 154 / 153 40% 4 01.12.2026 -
Hugo Duro Valencia Actif 145 / 136 40% 2 01.12.2026 -
Federico Pereira Toulouse FC Actif 131 / 127 40% 2 30.11.2026 -
Dara O'Shea Ipswich Town Actif 145 / 130 40% 1 30.11.2026 -
Federico Chiesa Liverpool Actif 154 / 163 40% 3 28.11.2026 -
Jarrod Bowen West Ham United Actif 150 / 149 40% 2 26.11.2026 -
Eddie Nketiah Crystal Palace Actif 137 / 139 40% 1 23.11.2026 -
Thiago Brentford Actif 140 / 141 40% 1 21.11.2026 -
Alan Lescano Argentinos Juniors Actif 135 / 133 40% 2 20.11.2026 -
Santiago Montiel Independiente Actif 125 / 125 40% 1 20.11.2026 -
Alexis Vega Feyenoord Actif 150 / 138 40% 3 19.11.2026 -
Wesley Fofana Chelsea Actif 155 / 161 40% 2 12.11.2026 -
Tino Livramento Newcastle United Actif 157 / 149 40% 1 12.11.2026 -
Luis Suárez Sporting CP Actif 157 / 156 40% 1 12.11.2026 -
Dominic Solanke Tottenham Actif 155 / 143 40% 4 09.11.2026 -
Kevin Zenón Boca Juniors Actif 131 / 133 40% 3 05.11.2026 -
Tiago Palacios Estudiantes Actif 136 / 121 40% 2 03.11.2026 -
Ousmane Dembélé Paris Saint-Germain Actif 191 / 185 40% 2 03.11.2026 -
Pedro Flamengo Actif 147 / 131 40% 2 17.10.2026 -
Isaac Romero Sevilla Actif 131 / 130 40% 2 16.10.2026 -
Aarón Molinas Defensa y Justicia Actif 121 / 131 40% 1 16.10.2026 -
Pape Guèye Villarreal Actif 149 / 152 40% 1 16.10.2026 -
Pablo Barrios Atlético Madrid Actif 156 / 161 40% 1 16.10.2026 -
Vitinha Paris Saint-Germain Actif 188 / 185 40% 1 16.10.2026 -
Petar Musa FC Dallas Actif 151 / 143 40% 1 15.10.2026 -
Borja Mayoral Getafe Actif 142 / 139 40% 4 12.10.2026 -
Tammy Abraham Aston Villa Actif 134 / 145 40% 2 12.10.2026 -
Erik Lira Cruz Azul Actif 132 / 122 40% 1 10.10.2026 -
Morgan Rogers Chelsea Actif 157 / 149 40% 3 06.10.2026 -
Alex Luna Instituto Actif 136 / 126 40% 1 26.09.2026 -
Dejan Kulusevski Tottenham Actif 170 / 168 40% 1 21.09.2026 -
Juan Sierra La Equidad Actif 122 / 124 40% 1 18.09.2026 -
Sandro Tonali Tottenham Actif 167 / 165 40% 1 16.09.2026 -
Rasmus Højlund Espanyol Actif 157 / 146 40% 1 13.09.2026 -
Christian Pulisic AC Milan Actif 169 / 165 40% 1 10.09.2026 -
Jon Morcillo Almería Actif 123 / 133 65% 1 31.08.2026 Approuver
Guillaume Restes Toulouse FC Actif 129 / 132 40% 1 31.08.2026 -
Josh Keeley Luton Town Actif 111 / 115 40% 1 17.08.2026 -
Leandro Cabrera Espanyol Actif 144 / 130 65% 1 03.08.2026 Approuver
Rayan Cherki Manchester City Actif 159 / 158 40% 1 01.08.2026 -